Time;durP1;ratioP1;P1;durP2;ratioP2;P2;SDS_P1;SDS_P2;PMS_P1;PMS_P2;Temp;Humidity;BMP_temperature;BMP_pressure;BME280_temperature;BME280_humidity;BME280_pressure;Samples;Min_cycle;Max_cycle;Signal;HPM_P1;HPM_P2
2022/12/26 00:02:14;;;;;;;88.78;43.08;;;8.60;99.90;;;;;;5019202;28;20068;-78
2022/12/26 00:04:40;;;;;;;132.65;70.65;;;8.70;99.90;;;;;;5009918;28;20153;-78
2022/12/26 00:07:06;;;;;;;168.68;100.90;;;8.70;99.90;;;;;;5017410;28;20045;-78
2022/12/26 00:09:32;;;;;;;82.38;42.10;;;8.90;99.90;;;;;;5006616;28;20512;-78
2022/12/26 00:11:58;;;;;;;76.93;44.67;;;8.90;99.90;;;;;;5008531;28;20095;-78
2022/12/26 00:14:24;;;;;;;270.60;157.25;;;9.00;99.90;;;;;;4994475;28;20030;-78
2022/12/26 00:16:51;;;;;;;106.05;52.50;;;9.10;99.90;;;;;;4999673;28;20018;-77
2022/12/26 00:19:16;;;;;;;300.15;154.15;;;9.10;99.90;;;;;;5009547;28;20426;-78
2022/12/26 00:21:42;;;;;;;123.90;67.78;;;9.10;99.90;;;;;;5010868;28;20072;-78
2022/12/26 00:24:10;;;;;;;201.20;106.85;;;9.10;99.90;;;;;;5010417;28;20030;-78
2022/12/26 00:26:37;;;;;;;115.30;66.20;;;9.10;99.90;;;;;;4981766;28;20042;-78
2022/12/26 00:29:03;;;;;;;87.45;41.88;;;9.00;99.90;;;;;;4974010;28;20085;-77
2022/12/26 00:31:31;;;;;;;173.02;105.25;;;9.10;99.90;;;;;;4979668;28;20081;-77
2022/12/26 00:33:57;;;;;;;94.53;51.50;;;9.10;99.90;;;;;;4989219;28;20054;-77
2022/12/26 00:36:26;;;;;;;93.43;46.92;;;9.10;99.90;;;;;;4994071;28;20112;-77
2022/12/26 00:38:53;;;;;;;82.15;40.38;;;9.10;99.90;;;;;;4993135;28;20037;-77
2022/12/26 00:41:20;;;;;;;85.45;39.35;;;9.20;99.90;;;;;;4979754;28;20704;-77
2022/12/26 00:43:46;;;;;;;69.60;31.55;;;9.30;99.90;;;;;;4977687;28;20854;-76
2022/12/26 00:46:13;;;;;;;71.13;33.85;;;9.40;99.90;;;;;;4995549;28;20379;-78
2022/12/26 00:48:38;;;;;;;78.03;36.30;;;9.40;99.90;;;;;;4976595;28;20035;-77
2022/12/26 00:51:05;;;;;;;62.53;33.47;;;9.40;99.90;;;;;;4979856;28;20029;-77
2022/12/26 00:53:32;;;;;;;65.95;31.95;;;9.30;99.90;;;;;;4975907;28;20027;-77
2022/12/26 00:55:58;;;;;;;71.00;31.90;;;9.20;99.90;;;;;;4971159;28;20497;-77
2022/12/26 00:58:24;;;;;;;72.28;31.58;;;9.20;99.90;;;;;;4995055;28;20026;-77
2022/12/26 01:00:50;;;;;;;59.15;31.67;;;9.10;99.90;;;;;;4987121;28;20395;-77
2022/12/26 01:03:17;;;;;;;62.35;29.13;;;9.10;99.90;;;;;;4978812;28;20019;-77
2022/12/26 01:05:46;;;;;;;62.42;30.38;;;9.10;99.90;;;;;;4991089;28;20014;-77
2022/12/26 01:08:12;;;;;;;62.90;31.52;;;9.00;99.90;;;;;;4977608;28;20041;-78
2022/12/26 01:10:46;;;;;;;65.13;30.92;;;9.00;99.90;;;;;;4983433;28;20031;-77
2022/12/26 01:13:12;;;;;;;64.43;31.35;;;9.00;99.90;;;;;;4984163;28;20031;-78
2022/12/26 01:15:38;;;;;;;60.08;29.85;;;8.90;99.90;;;;;;4988533;28;20406;-77
2022/12/26 01:18:05;;;;;;;76.72;31.73;;;8.90;99.90;;;;;;4997278;28;20033;-77
2022/12/26 01:20:31;;;;;;;65.03;31.20;;;8.80;99.90;;;;;;4974983;28;20031;-78
2022/12/26 01:22:57;;;;;;;69.57;30.08;;;8.80;99.90;;;;;;4997579;28;20065;-78
2022/12/26 01:25:23;;;;;;;64.20;31.42;;;8.80;99.90;;;;;;4999865;28;20050;-77
2022/12/26 01:27:50;;;;;;;68.80;32.25;;;8.80;99.90;;;;;;5000428;28;20030;-77
2022/12/26 01:30:16;;;;;;;88.43;31.85;;;8.70;99.90;;;;;;5011911;28;20116;-77
2022/12/26 01:32:42;;;;;;;76.72;32.95;;;8.80;99.90;;;;;;5015369;28;20026;-77
2022/12/26 01:35:08;;;;;;;74.10;28.48;;;8.90;99.90;;;;;;4996620;28;20037;-77
2022/12/26 01:37:34;;;;;;;64.30;30.75;;;8.80;99.90;;;;;;5018058;28;20036;-77
2022/12/26 01:40:00;;;;;;;79.72;31.42;;;8.80;99.90;;;;;;5016085;28;20021;-77
2022/12/26 01:42:34;;;;;;;71.03;31.23;;;8.80;99.90;;;;;;5002473;28;20451;-78
2022/12/26 01:45:21;;;;;;;69.35;29.98;;;8.70;99.90;;;;;;5017244;28;20029;-77
2022/12/26 01:47:59;;;;;;;76.22;29.92;;;8.70;99.90;;;;;;4996998;28;20026;-77
2022/12/26 01:50:28;;;;;;;72.93;30.85;;;8.70;99.90;;;;;;5009442;28;20030;-77
2022/12/26 01:52:58;;;;;;;70.65;31.23;;;8.70;99.90;;;;;;5001936;28;20022;-77
2022/12/26 01:55:25;;;;;;;79.82;32.72;;;8.70;99.90;;;;;;5010538;28;20445;-77
2022/12/26 01:58:00;;;;;;;77.80;31.98;;;8.70;99.90;;;;;;5002610;28;20032;-77
2022/12/26 02:00:26;;;;;;;74.50;31.33;;;8.80;99.90;;;;;;5009624;28;20037;-77
2022/12/26 02:05:38;;;;;;;75.32;31.88;;;8.90;99.90;;;;;;5011791;28;20041;-77
2022/12/26 02:08:23;;;;;;;76.75;31.88;;;8.90;99.90;;;;;;5018658;28;20402;-78
2022/12/26 02:11:15;;;;;;;80.90;32.65;;;8.90;99.90;;;;;;4986808;28;20022;-77
2022/12/26 02:13:41;;;;;;;72.57;31.13;;;8.90;99.90;;;;;;4994185;28;20093;-77
2022/12/26 02:16:11;;;;;;;72.93;30.13;;;8.80;99.90;;;;;;4988074;28;20452;-78
2022/12/26 02:18:37;;;;;;;72.07;31.73;;;8.90;99.90;;;;;;4996925;28;20026;-77
2022/12/26 02:21:21;;;;;;;69.90;30.27;;;8.80;99.90;;;;;;5007102;28;20037;-77
2022/12/26 02:24:21;;;;;;;69.50;30.10;;;8.80;99.90;;;;;;4995939;28;20026;-77
2022/12/26 02:27:31;;;;;;;72.88;31.40;;;8.80;99.90;;;;;;4999204;28;20057;-77
2022/12/26 02:30:10;;;;;;;81.82;34.40;;;8.90;99.90;;;;;;5010188;28;20025;-77
2022/12/26 02:32:44;;;;;;;72.93;31.73;;;8.90;99.90;;;;;;5013065;28;20494;-77
2022/12/26 02:35:12;;;;;;;74.00;34.92;;;8.90;99.90;;;;;;5010881;28;20021;-77
2022/12/26 02:38:07;;;;;;;87.45;34.15;;;8.90;99.90;;;;;;5016578;28;20034;-77
2022/12/26 02:40:47;;;;;;;94.28;37.13;;;8.90;99.90;;;;;;5013124;28;20019;-77
2022/12/26 02:43:31;;;;;;;89.05;36.10;;;8.90;99.90;;;;;;5007432;28;20054;-77
2022/12/26 02:48:56;;;;;;;73.50;35.67;;;8.90;99.90;;;;;;5016628;28;20041;-78
2022/12/26 03:15:06;;;;;;;76.85;34.30;;;8.90;99.90;;;;;;5010468;28;20029;-77
2022/12/26 03:17:38;;;;;;;92.93;35.03;;;8.90;99.90;;;;;;5012003;28;20037;-77
2022/12/26 03:20:18;;;;;;;84.90;35.33;;;8.90;99.90;;;;;;4994478;28;20280;-77
2022/12/26 03:22:50;;;;;;;85.30;34.53;;;9.00;99.90;;;;;;4987609;28;20030;-77
2022/12/26 03:28:26;;;;;;;;;;;9.00;99.90;;;;;;5002640;28;20156;-77
2022/12/26 03:30:54;;;;;;;73.93;32.55;;;9.00;99.90;;;;;;5010902;28;19952;-77
2022/12/26 03:36:43;;;;;;;70.70;30.88;;;8.90;99.90;;;;;;5011939;28;20160;-77
2022/12/26 04:45:06;;;;;;;86.55;38.20;;;8.50;99.90;;;;;;5012189;28;20096;-77
2022/12/26 04:47:32;;;;;;;80.35;34.72;;;8.40;99.90;;;;;;5014494;28;20036;-77
2022/12/26 04:50:14;;;;;;;94.05;35.10;;;8.30;99.90;;;;;;5007078;28;20037;-77
2022/12/26 04:52:59;;;;;;;92.95;38.38;;;8.30;99.90;;;;;;5014924;28;20069;-77
2022/12/26 04:55:27;;;;;;;93.38;38.30;;;8.30;99.90;;;;;;5009166;28;20068;-77
2022/12/26 04:57:53;;;;;;;93.10;37.72;;;8.20;99.90;;;;;;5015999;28;20030;-77
2022/12/26 05:00:20;;;;;;;84.60;38.22;;;8.30;99.90;;;;;;5012321;28;20030;-77
2022/12/26 05:09:32;;;;;;;102.05;39.00;;;8.30;99.90;;;;;;5009378;28;20033;-77
2022/12/26 05:11:32;;;;;;;83.10;34.58;;;8.40;99.90;;;;;;5012829;28;20616;-77
2022/12/26 05:13:58;;;;;;;79.10;36.13;;;8.40;99.90;;;;;;5010672;28;20030;-77
2022/12/26 05:30:22;;;;;;;97.78;34.47;;;8.20;99.90;;;;;;5009799;28;20096;-77
2022/12/26 05:35:34;;;;;;;83.57;35.20;;;8.20;99.90;;;;;;5009571;28;20061;-77
2022/12/26 05:38:00;;;;;;;82.00;34.42;;;8.10;99.90;;;;;;4994706;28;20438;-77
2022/12/26 05:40:26;;;;;;;88.05;36.22;;;8.20;99.90;;;;;;4996238;28;20060;-77
2022/12/26 05:42:52;;;;;;;95.10;37.05;;;8.30;99.90;;;;;;5015507;28;20021;-77
2022/12/26 05:45:18;;;;;;;98.30;37.22;;;8.40;99.90;;;;;;4994981;28;20056;-77
2022/12/26 05:47:44;;;;;;;94.30;35.20;;;8.50;99.90;;;;;;5015620;28;20018;-77
2022/12/26 05:50:10;;;;;;;88.13;35.60;;;8.50;99.90;;;;;;5011574;28;20033;-76
2022/12/26 05:52:36;;;;;;;75.68;32.70;;;8.40;99.90;;;;;;5015483;28;20033;-77
2022/12/26 05:55:02;;;;;;;96.22;35.30;;;8.30;99.90;;;;;;5010596;28;20450;-77
2022/12/26 05:57:28;;;;;;;102.82;35.55;;;8.30;99.90;;;;;;5013999;28;20061;-77
2022/12/26 05:59:54;;;;;;;86.22;36.10;;;8.30;99.90;;;;;;5012163;28;20040;-77
2022/12/26 06:02:19;;;;;;;91.68;35.33;;;8.50;99.90;;;;;;5017000;28;20014;-77
2022/12/26 06:04:45;;;;;;;98.25;36.75;;;8.50;99.90;;;;;;5014199;28;20369;-77
2022/12/26 06:07:11;;;;;;;94.70;35.90;;;8.60;99.90;;;;;;5001453;28;20022;-77
2022/12/26 06:09:37;;;;;;;102.00;38.05;;;8.50;99.90;;;;;;5013634;28;20504;-77
2022/12/26 06:12:03;;;;;;;92.28;35.70;;;8.50;99.90;;;;;;5000542;28;20022;-76
2022/12/26 06:14:29;;;;;;;91.30;34.70;;;8.40;99.90;;;;;;5013541;28;20101;-76
2022/12/26 06:16:54;;;;;;;82.00;33.47;;;8.40;99.90;;;;;;5000657;28;20026;-76
2022/12/26 06:19:21;;;;;;;91.25;34.20;;;8.30;99.90;;;;;;4994513;28;20037;-77
2022/12/26 06:21:47;;;;;;;87.55;34.58;;;8.20;99.90;;;;;;4995034;28;20018;-76
2022/12/26 06:24:13;;;;;;;82.30;34.17;;;8.20;99.90;;;;;;5000835;28;20030;-77
2022/12/26 06:26:39;;;;;;;97.72;33.53;;;8.20;99.90;;;;;;4999056;28;20049;-77
2022/12/26 06:29:06;;;;;;;87.47;36.03;;;8.20;99.90;;;;;;4982060;28;20026;-76
2022/12/26 06:31:31;;;;;;;97.20;37.83;;;8.20;99.90;;;;;;5011882;28;20513;-77
2022/12/26 06:34:00;;;;;;;94.90;37.20;;;8.30;99.90;;;;;;5009643;28;20034;-77
2022/12/26 06:36:27;;;;;;;110.25;38.53;;;8.30;99.90;;;;;;4999545;28;20029;-77
2022/12/26 06:38:53;;;;;;;94.25;37.13;;;8.30;99.90;;;;;;5016116;28;20037;-76
2022/12/26 06:41:21;;;;;;;81.20;36.50;;;8.30;99.90;;;;;;5001615;28;20026;-76
2022/12/26 06:43:47;;;;;;;116.75;44.78;;;8.30;99.90;;;;;;4998281;28;20161;-77
2022/12/26 06:46:17;;;;;;;115.53;42.60;;;8.40;99.90;;;;;;5017512;28;20470;-76
2022/12/26 06:48:43;;;;;;;109.75;40.78;;;8.50;99.90;;;;;;4997385;28;20033;-77
2022/12/26 06:51:30;;;;;;;104.30;45.40;;;8.60;99.90;;;;;;5014923;28;20018;-76
2022/12/26 06:54:01;;;;;;;109.50;41.50;;;8.60;99.90;;;;;;5004675;28;20042;-76
2022/12/26 06:56:27;;;;;;;128.13;41.25;;;8.60;99.90;;;;;;5001283;28;20018;-77
2022/12/26 06:58:59;;;;;;;115.10;43.80;;;8.70;99.90;;;;;;5013998;28;20022;-77
2022/12/26 07:01:26;;;;;;;133.55;53.38;;;8.80;99.90;;;;;;5017864;28;20042;-77
2022/12/26 07:03:53;;;;;;;215.00;75.95;;;9.00;99.90;;;;;;5013621;28;20451;-77
2022/12/26 07:06:35;;;;;;;133.50;48.00;;;9.00;99.90;;;;;;5003548;28;20117;-77
2022/12/26 07:09:05;;;;;;;137.15;50.28;;;9.00;99.90;;;;;;5010325;28;20033;-77
2022/12/26 07:11:33;;;;;;;167.30;74.43;;;9.00;99.90;;;;;;5006610;28;20024;-77
2022/12/26 07:14:00;;;;;;;110.60;44.05;;;8.90;99.90;;;;;;4996282;28;20081;-77
2022/12/26 07:16:26;;;;;;;258.00;78.47;;;8.80;99.90;;;;;;5000304;28;20108;-77
2022/12/26 07:18:57;;;;;;;489.95;169.25;;;8.80;99.90;;;;;;5014153;28;20474;-76
2022/12/26 07:21:24;;;;;;;138.35;46.60;;;8.70;99.90;;;;;;5017149;28;20482;-77
2022/12/26 07:23:51;;;;;;;144.45;48.65;;;8.60;99.90;;;;;;5015093;28;20026;-76
2022/12/26 07:26:17;;;;;;;300.98;85.00;;;8.60;99.90;;;;;;5017729;28;20053;-77
2022/12/26 07:28:43;;;;;;;111.60;39.08;;;8.50;99.90;;;;;;5014942;28;20036;-77
2022/12/26 07:31:14;;;;;;;124.25;42.42;;;8.40;99.90;;;;;;5012786;28;20097;-77
2022/12/26 07:33:40;;;;;;;127.78;45.00;;;8.40;99.90;;;;;;5013795;28;20037;-77
2022/12/26 07:36:06;;;;;;;139.70;48.35;;;8.50;99.90;;;;;;5012665;28;20100;-77
2022/12/26 07:38:32;;;;;;;102.00;38.60;;;8.50;99.90;;;;;;5015010;28;20040;-77
2022/12/26 07:40:58;;;;;;;96.25;37.13;;;8.60;99.90;;;;;;4998225;28;20014;-77
2022/12/26 07:43:25;;;;;;;96.93;36.47;;;8.60;99.90;;;;;;5014855;28;20030;-76
2022/12/26 07:45:51;;;;;;;121.82;40.35;;;8.60;99.90;;;;;;5012969;28;20025;-77
2022/12/26 07:48:17;;;;;;;134.73;44.95;;;8.60;99.90;;;;;;5015596;28;20040;-77
2022/12/26 07:50:46;;;;;;;106.50;40.70;;;8.60;99.90;;;;;;5014446;28;20022;-76
2022/12/26 07:53:13;;;;;;;99.47;37.03;;;8.60;99.90;;;;;;5015896;28;20435;-76
2022/12/26 07:55:39;;;;;;;92.30;34.65;;;8.60;99.90;;;;;;4991155;28;20022;-77
2022/12/26 07:58:05;;;;;;;106.35;41.17;;;8.70;99.90;;;;;;4992298;28;20026;-77
2022/12/26 08:00:31;;;;;;;110.97;39.25;;;8.70;99.90;;;;;;5007186;28;20019;-76
2022/12/26 08:02:57;;;;;;;113.63;42.90;;;8.70;99.90;;;;;;4990512;28;20033;-77
2022/12/26 08:05:23;;;;;;;106.90;39.58;;;8.80;99.90;;;;;;4997018;28;20053;-77
2022/12/26 08:07:49;;;;;;;120.93;41.40;;;8.90;99.90;;;;;;4999158;28;20033;-76
2022/12/26 08:10:16;;;;;;;117.93;43.20;;;9.00;99.90;;;;;;5009636;28;20022;-77
2022/12/26 08:12:42;;;;;;;94.60;38.65;;;9.00;99.90;;;;;;5011080;28;20103;-77
2022/12/26 08:15:10;;;;;;;121.13;45.28;;;8.90;99.90;;;;;;5010768;28;20058;-77
2022/12/26 08:17:36;;;;;;;113.38;40.90;;;8.90;99.90;;;;;;5011180;28;20030;-77
2022/12/26 08:20:02;;;;;;;131.07;47.95;;;9.10;99.90;;;;;;5011029;28;20392;-77
2022/12/26 08:22:28;;;;;;;117.07;43.17;;;9.10;99.90;;;;;;4999115;28;20044;-77
2022/12/26 08:24:54;;;;;;;122.65;45.92;;;9.20;99.90;;;;;;5013667;28;20042;-77
2022/12/26 08:27:19;;;;;;;121.20;45.47;;;9.10;99.90;;;;;;4998970;28;20076;-76
2022/12/26 08:29:46;;;;;;;109.22;43.70;;;9.10;99.90;;;;;;5010691;28;20026;-76
2022/12/26 08:32:12;;;;;;;135.48;47.85;;;9.10;99.90;;;;;;5014416;28;20108;-76
2022/12/26 08:34:38;;;;;;;114.15;44.28;;;9.20;99.90;;;;;;4991647;28;20057;-76
2022/12/26 08:37:04;;;;;;;138.63;47.25;;;9.30;99.90;;;;;;5012004;28;20037;-75
2022/12/26 08:39:30;;;;;;;130.43;49.78;;;9.50;99.90;;;;;;5011344;28;20046;-76
2022/12/26 08:41:55;;;;;;;136.38;52.65;;;9.70;99.90;;;;;;4992761;28;20022;-76
2022/12/26 08:44:21;;;;;;;115.97;47.35;;;10.00;99.90;;;;;;5013102;28;20025;-75
2022/12/26 08:46:47;;;;;;;122.43;52.35;;;10.20;99.90;;;;;;5015860;28;20525;-76
2022/12/26 08:49:13;;;;;;;118.32;50.33;;;10.20;99.90;;;;;;4994890;28;20500;-77
2022/12/26 08:51:39;;;;;;;105.95;46.97;;;10.30;99.90;;;;;;5001212;28;20026;-77
2022/12/26 08:54:05;;;;;;;112.38;47.60;;;10.30;99.90;;;;;;4996293;28;20423;-76
2022/12/26 08:56:31;;;;;;;99.70;43.28;;;10.30;99.90;;;;;;5012141;28;20470;-76
2022/12/26 08:58:57;;;;;;;72.13;34.67;;;10.30;99.90;;;;;;4996001;28;20110;-76
2022/12/26 09:01:25;;;;;;;81.32;37.10;;;10.20;99.90;;;;;;5011349;28;20022;-77
2022/12/26 09:03:56;;;;;;;92.65;36.45;;;10.30;99.90;;;;;;4996107;28;20109;-77
2022/12/26 09:06:22;;;;;;;72.75;31.30;;;10.30;99.90;;;;;;5012552;28;20022;-76
2022/12/26 09:08:48;;;;;;;67.07;30.42;;;10.40;99.90;;;;;;5012642;28;20052;-77
2022/12/26 09:11:17;;;;;;;50.58;24.80;;;10.30;99.90;;;;;;5003208;28;20023;-77
2022/12/26 09:13:44;;;;;;;46.53;27.23;;;10.30;99.90;;;;;;4994259;28;20086;-77
2022/12/26 09:16:14;;;;;;;40.40;24.50;;;10.30;99.90;;;;;;4986778;28;20022;-76
2022/12/26 09:18:41;;;;;;;50.05;24.08;;;10.30;99.90;;;;;;4996013;28;20033;-76
2022/12/26 09:21:09;;;;;;;41.72;23.45;;;10.40;99.90;;;;;;5017690;28;20438;-76
2022/12/26 09:23:35;;;;;;;48.58;24.63;;;10.30;99.90;;;;;;4995114;28;20023;-76
2022/12/26 09:26:13;;;;;;;52.47;24.83;;;10.40;99.90;;;;;;4998405;28;20078;-76
2022/12/26 09:28:40;;;;;;;43.83;25.92;;;10.30;99.90;;;;;;4994380;28;20106;-76
2022/12/26 09:31:12;;;;;;;46.13;24.48;;;10.40;99.90;;;;;;5010214;28;20478;-76
2022/12/26 09:33:38;;;;;;;47.78;27.08;;;10.40;99.90;;;;;;5008299;28;20026;-76
2022/12/26 09:36:10;;;;;;;58.13;35.13;;;10.40;99.90;;;;;;4997917;28;20052;-76
2022/12/26 09:38:36;;;;;;;46.95;27.33;;;10.50;99.90;;;;;;5016581;28;20556;-76
2022/12/26 09:41:17;;;;;;;54.10;25.77;;;10.60;99.90;;;;;;5001447;28;20029;-76
2022/12/26 09:44:01;;;;;;;42.97;24.38;;;10.60;99.90;;;;;;5015888;28;20141;-76
2022/12/26 09:46:27;;;;;;;46.97;26.77;;;10.70;99.90;;;;;;5019299;28;20022;-77
2022/12/26 09:49:04;;;;;;;91.43;59.33;;;10.80;99.90;;;;;;5008975;28;20589;-77
2022/12/26 09:51:33;;;;;;;50.03;25.80;;;10.90;99.90;;;;;;5020084;28;20014;-76
2022/12/26 09:54:02;;;;;;;45.28;25.52;;;10.90;99.90;;;;;;5017459;28;20029;-76
2022/12/26 09:56:32;;;;;;;45.83;24.38;;;10.90;99.90;;;;;;5016147;28;20018;-76
2022/12/26 09:59:01;;;;;;;42.38;25.80;;;10.90;99.90;;;;;;5015201;28;20064;-75
2022/12/26 10:01:34;;;;;;;35.53;21.92;;;11.00;99.90;;;;;;5012063;28;20445;-76
2022/12/26 10:04:06;;;;;;;48.58;23.60;;;11.00;99.90;;;;;;5014504;28;20026;-76
2022/12/26 10:06:48;;;;;;;44.53;21.48;;;11.00;99.90;;;;;;5017927;28;20033;-77
2022/12/26 10:09:47;;;;;;;48.63;22.98;;;11.10;99.90;;;;;;4994552;28;20479;-76
2022/12/26 10:12:34;;;;;;;44.15;23.20;;;11.20;99.90;;;;;;5012414;28;20064;-76
2022/12/26 10:15:22;;;;;;;45.63;25.02;;;11.20;99.90;;;;;;5010909;28;20030;-76
2022/12/26 10:18:07;;;;;;;47.95;24.85;;;11.20;99.90;;;;;;5001228;28;20101;-76
2022/12/26 10:20:42;;;;;;;42.58;24.05;;;11.30;99.90;;;;;;4993344;28;20058;-75
2022/12/26 10:23:35;;;;;;;42.45;25.20;;;11.30;99.90;;;;;;5017860;28;20025;-77
2022/12/26 10:26:30;;;;;;;49.92;25.05;;;11.30;99.90;;;;;;5011375;28;20062;-77
2022/12/26 10:29:35;;;;;;;48.85;25.10;;;11.40;99.90;;;;;;5011123;28;20049;-76
2022/12/26 10:32:18;;;;;;;40.78;22.42;;;11.50;99.90;;;;;;5011360;28;20105;-76
2022/12/26 10:34:48;;;;;;;41.50;23.80;;;11.60;99.90;;;;;;5016848;28;20045;-76
2022/12/26 10:37:26;;;;;;;;;;;11.60;99.90;;;;;;5018826;28;20017;-77
2022/12/26 10:40:26;;;;;;;48.53;24.02;;;11.70;99.90;;;;;;4998227;28;20281;-77
2022/12/26 10:42:54;;;;;;;50.78;22.30;;;11.70;99.90;;;;;;5012042;28;20128;-77
2022/12/26 10:45:44;;;;;;;39.05;21.48;;;11.70;99.90;;;;;;5008737;28;20692;-77
2022/12/26 10:48:13;;;;;;;38.20;20.52;;;11.70;99.90;;;;;;5000310;28;20063;-76
2022/12/26 10:50:45;;;;;;;40.47;20.95;;;11.80;99.90;;;;;;5007869;28;20022;-76
2022/12/26 10:53:13;;;;;;;36.25;22.63;;;12.00;99.90;;;;;;5018092;28;20105;-77
2022/12/26 10:55:39;;;;;;;39.55;21.27;;;12.10;99.90;;;;;;5010062;28;20037;-77
2022/12/26 10:58:10;;;;;;;38.15;19.02;;;12.20;99.90;;;;;;5018283;28;20030;-78
2022/12/26 11:00:36;;;;;;;32.72;19.83;;;12.30;99.90;;;;;;5010590;28;20027;-77
2022/12/26 11:03:07;;;;;;;29.27;17.70;;;12.30;99.90;;;;;;5018712;28;20120;-77
2022/12/26 11:05:43;;;;;;;25.67;18.65;;;12.40;99.90;;;;;;5008169;28;20026;-77
2022/12/26 11:08:19;;;;;;;28.05;15.02;;;12.50;99.90;;;;;;5000003;28;20026;-74
2022/12/26 11:11:05;;;;;;;35.42;15.77;;;12.60;99.90;;;;;;5013301;28;20022;-76
2022/12/26 11:13:38;;;;;;;26.13;13.85;;;12.70;99.90;;;;;;4999900;28;20080;-76
2022/12/26 11:16:05;;;;;;;23.30;13.43;;;12.90;99.90;;;;;;5008271;28;20018;-76
2022/12/26 11:18:48;;;;;;;24.85;13.38;;;13.00;99.90;;;;;;5016097;28;20109;-76
2022/12/26 11:21:16;;;;;;;25.70;11.50;;;13.20;99.90;;;;;;5009967;28;20018;-77
2022/12/26 11:23:43;;;;;;;20.88;9.98;;;13.30;99.90;;;;;;4997610;28;20022;-76
2022/12/26 11:26:20;;;;;;;17.63;9.52;;;13.50;99.90;;;;;;5014388;28;20041;-76
2022/12/26 11:28:47;;;;;;;21.70;9.75;;;13.60;99.90;;;;;;4995707;28;20030;-77
2022/12/26 11:31:25;;;;;;;16.85;10.30;;;13.80;99.90;;;;;;5014778;28;20068;-77
2022/12/26 11:33:56;;;;;;;18.60;8.40;;;14.00;99.90;;;;;;4994607;28;20049;-76
2022/12/26 11:36:26;;;;;;;18.00;9.70;;;14.10;99.90;;;;;;4996585;28;20117;-77
2022/12/26 11:38:59;;;;;;;22.85;8.55;;;14.10;99.90;;;;;;4996481;28;20026;-73
2022/12/26 11:41:31;;;;;;;16.75;8.85;;;14.20;99.90;;;;;;5013647;28;20109;-76
2022/12/26 11:44:14;;;;;;;13.40;8.82;;;14.20;99.90;;;;;;5015683;28;20384;-74
2022/12/26 11:46:46;;;;;;;21.08;9.02;;;14.20;99.90;;;;;;5012008;28;20030;-75
2022/12/26 11:49:34;;;;;;;18.88;8.70;;;14.20;99.90;;;;;;5014333;28;20022;-75
2022/12/26 11:52:21;;;;;;;13.60;7.28;;;14.10;99.90;;;;;;4998427;28;20022;-74
2022/12/26 11:54:50;;;;;;;17.02;8.25;;;14.10;99.90;;;;;;5011126;28;20220;-74
2022/12/26 11:57:25;;;;;;;20.63;8.77;;;14.10;99.90;;;;;;5017552;28;20116;-74
2022/12/26 11:59:52;;;;;;;20.38;7.82;;;14.10;99.90;;;;;;4993358;28;20087;-74
2022/12/26 12:02:27;;;;;;;19.05;8.10;;;14.10;99.90;;;;;;5010140;28;20064;-74
2022/12/26 12:05:11;;;;;;;17.98;7.32;;;14.10;99.90;;;;;;4993873;28;20037;-75
2022/12/26 12:07:46;;;;;;;18.52;8.63;;;14.20;99.90;;;;;;5006492;28;20439;-75
2022/12/26 12:10:46;;;;;;;16.90;7.28;;;14.20;99.90;;;;;;5010315;28;20021;-74
2022/12/26 12:13:30;;;;;;;17.77;8.52;;;14.30;99.90;;;;;;5015767;28;20367;-75
2022/12/26 12:16:13;;;;;;;12.50;6.53;;;14.40;99.90;;;;;;4997955;28;20064;-75
2022/12/26 12:18:48;;;;;;;17.38;7.03;;;14.60;99.90;;;;;;5014855;28;20487;-75
2022/12/26 12:21:30;;;;;;;17.65;7.35;;;14.70;99.90;;;;;;5015753;28;20022;-74
2022/12/26 12:24:27;;;;;;;14.02;6.65;;;14.90;99.90;;;;;;5013080;28;20019;-75
2022/12/26 12:26:53;;;;;;;19.67;7.80;;;15.10;99.90;;;;;;5010937;28;20038;-75
2022/12/26 12:29:38;;;;;;;18.92;6.72;;;15.30;99.90;;;;;;5012927;28;20029;-75
2022/12/26 12:32:23;;;;;;;12.07;7.45;;;15.40;99.90;;;;;;5014651;28;20026;-75
2022/12/26 12:35:03;;;;;;;11.95;6.30;;;15.50;99.90;;;;;;5008128;28;20032;-75
2022/12/26 12:37:45;;;;;;;16.15;6.85;;;15.60;99.90;;;;;;5015709;28;20394;-75
2022/12/26 12:40:22;;;;;;;12.23;6.95;;;15.70;99.90;;;;;;5014405;28;20018;-75
2022/12/26 12:43:19;;;;;;;15.82;7.95;;;15.60;99.90;;;;;;5010913;28;20032;-75
2022/12/26 12:46:14;;;;;;;22.38;9.55;;;15.60;99.90;;;;;;5012948;28;20054;-76
2022/12/26 12:49:14;;;;;;;16.90;7.18;;;15.50;99.90;;;;;;4996745;28;20026;-75
2022/12/26 12:52:11;;;;;;;14.85;6.97;;;15.40;99.90;;;;;;4999120;28;20022;-74
2022/12/26 12:55:00;;;;;;;12.45;5.85;;;15.30;99.90;;;;;;5007496;28;20030;-75
2022/12/26 12:57:36;;;;;;;16.92;6.47;;;15.20;99.90;;;;;;5011096;28;20021;-76
2022/12/26 13:00:20;;;;;;;13.85;6.65;;;15.10;99.90;;;;;;4993083;28;20084;-76
2022/12/26 13:03:09;;;;;;;17.25;6.60;;;15.00;99.90;;;;;;5015634;28;20025;-76
2022/12/26 13:05:38;;;;;;;11.40;6.30;;;15.00;99.90;;;;;;4992192;28;20026;-75
2022/12/26 13:08:28;;;;;;;18.23;7.82;;;14.90;99.90;;;;;;5015918;28;20447;-76
2022/12/26 13:11:00;;;;;;;15.02;7.80;;;14.90;99.90;;;;;;5000445;28;20026;-75
2022/12/26 13:13:32;;;;;;;17.55;7.18;;;14.90;99.90;;;;;;5000224;28;20094;-76
2022/12/26 13:16:17;;;;;;;16.45;6.30;;;14.90;99.90;;;;;;5018218;28;20393;-75
2022/12/26 13:18:59;;;;;;;14.85;6.43;;;15.00;99.90;;;;;;4999180;28;20050;-75
2022/12/26 13:21:26;;;;;;;13.27;5.35;;;15.00;99.90;;;;;;5019005;28;20029;-75
2022/12/26 13:27:02;;;;;;;12.73;6.20;;;15.20;99.90;;;;;;5017583;28;20164;-77
2022/12/26 13:29:30;;;;;;;12.35;5.93;;;15.30;99.90;;;;;;5016965;28;20026;-76
2022/12/26 13:32:00;;;;;;;11.23;5.93;;;15.40;99.90;;;;;;5002683;28;20117;-76
2022/12/26 13:34:26;;;;;;;9.55;6.18;;;15.40;99.90;;;;;;5014173;28;20030;-77
2022/12/26 13:36:57;;;;;;;11.13;6.53;;;15.50;99.90;;;;;;5001232;28;20117;-76
2022/12/26 13:39:30;;;;;;;16.42;7.55;;;15.60;99.90;;;;;;5015828;28;20052;-77
2022/12/26 13:45:36;;;;;;;12.80;5.50;;;15.60;99.90;;;;;;5017738;28;20088;-76
2022/12/26 13:48:25;;;;;;;15.65;5.75;;;15.60;99.90;;;;;;4991258;28;20027;-77
2022/12/26 13:50:53;;;;;;;11.40;6.45;;;15.70;99.90;;;;;;5003977;28;20113;-77
2022/12/26 13:53:25;;;;;;;12.13;5.72;;;15.60;99.90;;;;;;5019167;28;20053;-77
2022/12/26 13:56:09;;;;;;;13.15;5.53;;;15.50;99.90;;;;;;4996335;28;20022;-77
2022/12/26 13:58:35;;;;;;;14.32;6.85;;;15.30;99.90;;;;;;5000723;28;20034;-77
2022/12/26 14:01:04;;;;;;;12.13;6.32;;;15.20;99.90;;;;;;4996847;28;20442;-78
2022/12/26 14:04:02;;;;;;;14.75;6.80;;;15.10;99.90;;;;;;5000121;28;20030;-77
2022/12/26 14:06:33;;;;;;;10.73;6.70;;;15.00;99.90;;;;;;5015501;28;20033;-76
2022/12/26 14:09:20;;;;;;;11.63;6.05;;;14.90;99.90;;;;;;4996262;28;20034;-77
2022/12/26 14:12:00;;;;;;;10.65;6.47;;;14.70;99.90;;;;;;5011452;28;20029;-77
2022/12/26 14:14:37;;;;;;;22.33;7.00;;;14.70;99.90;;;;;;4997237;28;20545;-77
2022/12/26 14:17:57;;;;;;;13.38;5.88;;;14.60;99.90;;;;;;5013353;28;20109;-75
2022/12/26 14:20:39;;;;;;;11.82;6.55;;;14.70;99.90;;;;;;4956868;28;20041;-75
2022/12/26 14:23:27;;;;;;;16.15;6.78;;;14.70;99.90;;;;;;5000521;28;20089;-74
2022/12/26 14:26:44;;;;;;;13.75;6.63;;;14.70;99.90;;;;;;5010522;28;20042;-75
2022/12/26 14:29:16;;;;;;;12.65;6.68;;;14.80;99.90;;;;;;4966480;28;20093;-75
2022/12/26 14:32:04;;;;;;;14.30;6.38;;;14.70;99.90;;;;;;5014438;28;20050;-75
2022/12/26 14:35:00;;;;;;;19.67;6.85;;;14.60;99.90;;;;;;4993947;28;20037;-75
2022/12/26 14:37:51;;;;;;;10.95;7.28;;;14.60;99.90;;;;;;5018120;28;20409;-77
2022/12/26 14:40:34;;;;;;;16.85;6.60;;;14.40;99.90;;;;;;5012116;28;20576;-79
2022/12/26 14:43:12;;;;;;;12.88;5.53;;;14.30;99.90;;;;;;4998958;28;20431;-78
2022/12/26 14:45:53;;;;;;;11.90;6.50;;;14.20;99.90;;;;;;5017158;28;20124;-78
2022/12/26 14:48:22;;;;;;;22.45;7.03;;;14.00;99.90;;;;;;4993810;28;20041;-79
2022/12/26 14:50:56;;;;;;;11.65;6.18;;;13.90;99.90;;;;;;5012888;28;20036;-78
2022/12/26 14:53:27;;;;;;;11.45;6.32;;;13.80;99.90;;;;;;5018138;28;20500;-77
2022/12/26 14:56:09;;;;;;;12.55;6.20;;;13.70;99.90;;;;;;4995416;28;20023;-78
2022/12/26 14:58:51;;;;;;;9.93;6.38;;;13.70;99.90;;;;;;5016751;28;20030;-78
2022/12/26 15:01:23;;;;;;;10.40;7.10;;;13.60;99.90;;;;;;5003947;28;20026;-78
2022/12/26 15:04:21;;;;;;;11.07;6.68;;;13.60;99.90;;;;;;5002429;28;20022;-76
2022/12/26 15:06:49;;;;;;;10.57;6.78;;;13.50;99.90;;;;;;5017449;28;20378;-75
2022/12/26 15:10:07;;;;;;;17.02;6.95;;;13.50;99.90;;;;;;4994170;28;20023;-74
2022/12/26 15:12:55;;;;;;;13.63;7.78;;;13.40;99.90;;;;;;4975141;28;20034;-75
2022/12/26 15:15:23;;;;;;;13.82;6.40;;;13.40;99.90;;;;;;5010128;28;20449;-75